Aérodrome :
LOGIN :

S'inscrire | Disclaimer

   EN    FR    IT 

 










Légende :    VFR   VFR Marginal   IFR   IFR Intensif   IFR Très Intensif
Visi : 
Plafond : 
>= 8 km
>= 3000ft
5 à 8 km
1000 à 3000 ft
1500m à 5 km
500 à 1000 ft
800 à 1500m
200 à 500 ft
< 800m
< 200 ft
Symboles :   Orages  Brouillard  Fortes neiges  Fortes précipitations  Vent > 20 kt
SIGMETs :   Divers  Orages  Givrage  Turbulence  Onde Orograph.  Cendres Volcan.






- Altitude de l'aérodrome : 1106 ft


LFSO - Nancy / Ochey

DERNIER METAR :
  • 260700Z AUTO 21012KT 9999 BKN013 OVC180 08/08 Q1005 NOSIG

METARs EXPIRÉS :
  • 260630Z AUTO 22012KT 9999 SCT013 OVC170 08/08 Q1005 BECMG BKN010 OVC160
  • 260600Z AUTO 22012KT 9999 BKN013 OVC150 08/08 Q1004
  • 260530Z AUTO 23012KT 9999 FEW015 OVC160 09/08 Q1005
  • 260500Z AUTO 23011KT 9999 SCT012 OVC150 09/08 Q1005
  • 260430Z AUTO 22013KT 9999 BKN013 OVC150 09/08 Q1004

TAF AMD TAF LFSO
Valide du 26 à 06h jusqu'au 27 à 03h UTC


260600Z 2606/2703 23015KT 9999 BKN010 OVC160
BECMG 2609/2611 BKN020
TEMPO 2614/2618 -SHRA SCT025TCU
TEMPO 2702/2703 -RA OVC008



MET'MAP, la Météo Aéronautique d'un coup d'oeil ! - Copyright ORBIFLY Décembre 2007 - Disclaimer

ORBIFLY MET'MAP TEAM :

Programmation & Développement : Alexandra Zaïnal
Sur une idée originale de : Baudouin d'Aumeries
Assistance à la programmation : Marc-Olivier Méhu
Soutien technique & logistique : Manuel Goepfert

Contact : metmap@orbifly.com




SOURCES & CREDITS :

   NOAA